createdAt,value
2022-12-12T00:01:30.219Z,101319.59
2022-12-12T00:03:31.794Z,101319.44
2022-12-12T00:05:33.395Z,101326.31
2022-12-12T00:07:34.892Z,101329.63
2022-12-12T00:09:36.403Z,101330.41
2022-12-12T00:11:37.897Z,101327.69
2022-12-12T00:13:40.063Z,101329.34
2022-12-12T00:15:41.564Z,101330.13
2022-12-12T00:17:43.058Z,101327.44
2022-12-12T00:19:44.522Z,101329.09
2022-12-12T00:21:46.027Z,101327.28
2022-12-12T00:23:47.829Z,101325.50
2022-12-12T00:25:58.481Z,101315.97
2022-12-12T00:28:00.504Z,101324.47
2022-12-12T00:30:02.257Z,101325.22
2022-12-12T00:32:03.870Z,101320.72
2022-12-12T00:34:05.442Z,101320.59
2022-12-12T00:36:07.458Z,101324.00
2022-12-12T00:38:09.215Z,101328.22
2022-12-12T00:40:11.476Z,101323.78
2022-12-12T00:42:13.085Z,101313.19
2022-12-12T00:44:14.521Z,101318.28
2022-12-12T00:46:19.158Z,101316.59
2022-12-12T00:48:20.988Z,101314.00
2022-12-12T00:50:22.472Z,101315.69
2022-12-12T00:52:23.945Z,101320.88
2022-12-12T00:54:25.410Z,101322.56
2022-12-12T00:56:28.963Z,101328.53
2022-12-12T00:58:31.151Z,101335.41
2022-12-12T01:00:33.446Z,101337.88
2022-12-12T01:02:35.490Z,101333.53
2022-12-12T01:04:36.964Z,101335.19
2022-12-12T01:06:38.547Z,101333.41
2022-12-12T01:08:41.206Z,101335.13
2022-12-12T01:10:43.583Z,101333.41
2022-12-12T01:12:45.268Z,101341.97
2022-12-12T01:14:47.466Z,101341.97
2022-12-12T01:16:48.955Z,101344.44
2022-12-12T01:18:50.806Z,101345.94
2022-12-12T01:20:52.848Z,101351.03
2022-12-12T01:22:54.845Z,101355.31
2022-12-12T01:24:57.000Z,101353.50
2022-12-12T01:26:58.504Z,101346.53
2022-12-12T01:28:59.978Z,101349.81
2022-12-12T01:31:01.967Z,101354.03
2022-12-12T01:33:03.853Z,101354.84
2022-12-12T01:35:08.192Z,101349.63
2022-12-12T01:37:09.682Z,101358.13
2022-12-12T01:39:11.234Z,101361.53
2022-12-12T01:41:13.701Z,101367.44
2022-12-12T01:43:16.925Z,101367.25
2022-12-12T01:45:56.032Z,101364.56
2022-12-12T01:48:03.456Z,101368.09
2022-12-12T01:50:09.430Z,101353.44
2022-12-12T01:52:15.312Z,101355.06
2022-12-12T01:54:21.955Z,101351.50
2022-12-12T01:56:23.769Z,101359.22
2022-12-12T01:58:25.966Z,101358.34
2022-12-12T02:00:27.556Z,101363.44
2022-12-12T02:02:29.942Z,101359.72
2022-12-12T02:04:31.913Z,101358.72
2022-12-12T02:06:33.952Z,101372.34
2022-12-12T02:08:37.203Z,101369.78
2022-12-12T02:10:38.883Z,101363.81
2022-12-12T02:12:40.394Z,101371.47
2022-12-12T02:14:48.570Z,101371.41
2022-12-12T02:16:57.395Z,101370.47
2022-12-12T02:19:04.732Z,101376.25
2022-12-12T02:21:15.452Z,101376.94
2022-12-12T02:23:30.238Z,101375.06
2022-12-12T02:26:01.079Z,101379.34
2022-12-12T02:28:17.760Z,101372.44
2022-12-12T02:30:22.933Z,101381.84
2022-12-12T02:32:46.355Z,101375.88
2022-12-12T02:35:15.232Z,101375.88
2022-12-12T02:37:25.995Z,101371.47
2022-12-12T02:39:51.811Z,101371.47
2022-12-12T02:42:00.454Z,101379.22
2022-12-12T02:44:18.707Z,101375.75
2022-12-12T02:46:34.365Z,101376.50
2022-12-12T02:48:55.494Z,101378.97
2022-12-12T02:51:00.744Z,101373.69
2022-12-12T02:53:02.189Z,101378.78
2022-12-12T02:55:05.036Z,101371.84
2022-12-12T02:57:24.001Z,101381.34
2022-12-12T02:59:28.175Z,101376.94
2022-12-12T03:01:54.081Z,101383.78
2022-12-12T03:04:24.779Z,101375.97
2022-12-12T03:06:58.702Z,101381.06
2022-12-12T03:09:24.729Z,101385.31
2022-12-12T03:11:38.091Z,101380.94
2022-12-12T03:13:52.190Z,101377.47
2022-12-12T03:15:56.607Z,101380.88
2022-12-12T03:18:23.049Z,101380.06
2022-12-12T03:20:45.188Z,101389.41
2022-12-12T03:22:55.043Z,101384.88
2022-12-12T03:25:15.526Z,101384.75
2022-12-12T03:27:23.895Z,101383.81
2022-12-12T03:29:34.220Z,101387.19
2022-12-12T03:31:39.778Z,101379.41
2022-12-12T03:33:48.807Z,101379.47
2022-12-12T03:36:10.152Z,101385.50
2022-12-12T03:38:18.918Z,101383.75
2022-12-12T03:40:40.519Z,101386.13
2022-12-12T03:42:50.643Z,101385.22
2022-12-12T03:45:07.592Z,101383.47
2022-12-12T03:47:19.078Z,101391.25
2022-12-12T03:49:27.101Z,101392.16
2022-12-12T03:51:32.014Z,101383.59
2022-12-12T03:53:33.376Z,101393.09
2022-12-12T03:55:34.775Z,101390.56
2022-12-12T03:57:42.369Z,101392.41
2022-12-12T04:00:08.632Z,101393.28
2022-12-12T04:02:21.588Z,101398.50
2022-12-12T04:04:39.013Z,101401.00
2022-12-12T04:06:53.534Z,101405.28
2022-12-12T04:09:19.353Z,101400.94
2022-12-12T04:11:40.375Z,101396.47
2022-12-12T04:14:07.665Z,101400.69
2022-12-12T04:16:14.296Z,101401.44
2022-12-12T04:18:37.589Z,101399.47
2022-12-12T04:21:06.274Z,101399.28
2022-12-12T04:23:56.373Z,101406.94
2022-12-12T04:26:19.277Z,101409.44
2022-12-12T04:28:20.798Z,101411.13
2022-12-12T04:30:22.284Z,101402.53
2022-12-12T04:32:50.587Z,101409.38
2022-12-12T04:35:02.126Z,101404.94
2022-12-12T04:37:06.577Z,101405.81
2022-12-12T04:39:10.085Z,101406.63
2022-12-12T04:41:13.266Z,101409.13
2022-12-12T04:43:22.294Z,101415.09
2022-12-12T04:45:29.199Z,101406.50
2022-12-12T04:47:32.004Z,101404.72
2022-12-12T04:49:36.381Z,101401.22
2022-12-12T04:51:43.517Z,101394.31
2022-12-12T04:53:50.751Z,101399.31
2022-12-12T04:56:00.586Z,101397.63
2022-12-12T04:58:03.210Z,101404.47
2022-12-12T05:00:04.956Z,101399.25
2022-12-12T05:02:18.158Z,101388.88
2022-12-12T05:04:27.605Z,101397.41
2022-12-12T05:06:39.378Z,101397.41
2022-12-12T05:08:53.708Z,101397.41
2022-12-12T05:10:59.582Z,101402.56
2022-12-12T05:13:01.290Z,101401.69
2022-12-12T05:15:02.901Z,101403.44
2022-12-12T05:17:11.447Z,101407.72
2022-12-12T05:19:12.977Z,101401.53
2022-12-12T05:21:15.137Z,101406.63
2022-12-12T05:23:17.328Z,101404.88
2022-12-12T05:25:18.768Z,101404.88
2022-12-12T05:27:20.222Z,101402.22
2022-12-12T05:29:21.660Z,101413.41
2022-12-12T05:31:23.923Z,101419.34
2022-12-12T05:33:25.394Z,101412.38
2022-12-12T05:35:27.400Z,101412.31
2022-12-12T05:37:28.832Z,101418.34
2022-12-12T05:39:30.292Z,101416.50
2022-12-12T05:41:31.795Z,101408.72
2022-12-12T05:43:33.573Z,101400.78
2022-12-12T05:45:35.218Z,101401.53
2022-12-12T05:47:36.721Z,101403.22
2022-12-12T05:49:38.189Z,101406.59
2022-12-12T05:51:39.879Z,101409.13
2022-12-12T05:53:43.237Z,101412.50
2022-12-12T05:55:45.133Z,101419.22
2022-12-12T05:57:46.557Z,101417.41
2022-12-12T05:59:48.847Z,101423.34
2022-12-12T06:01:50.311Z,101422.41
2022-12-12T06:03:51.756Z,101427.47
2022-12-12T06:05:53.302Z,101419.53
2022-12-12T06:07:54.768Z,101430.34
2022-12-12T06:09:56.226Z,101420.69
2022-12-12T06:11:57.789Z,101424.88
2022-12-12T06:13:59.248Z,101423.13
2022-12-12T06:16:09.272Z,101420.63
2022-12-12T06:18:12.199Z,101434.44
2022-12-12T06:20:17.123Z,101431.97
2022-12-12T06:22:18.853Z,101431.97
2022-12-12T06:24:20.294Z,101431.97
2022-12-12T06:26:22.188Z,101437.03
2022-12-12T06:28:23.711Z,101440.50
2022-12-12T06:30:25.228Z,101433.56
2022-12-12T06:32:26.697Z,101429.94
2022-12-12T06:34:28.180Z,101429.16
2022-12-12T06:36:30.237Z,101434.28
2022-12-12T06:38:32.456Z,101431.72
2022-12-12T06:40:34.024Z,101439.50
2022-12-12T06:42:35.505Z,101434.38
2022-12-12T06:44:36.928Z,101443.84
2022-12-12T06:46:39.019Z,101439.44
2022-12-12T06:48:40.676Z,101447.06
2022-12-12T06:50:44.213Z,101443.53
2022-12-12T06:52:45.641Z,101449.56
2022-12-12T06:54:47.241Z,101444.28
2022-12-12T06:56:49.482Z,101445.97
2022-12-12T06:58:51.710Z,101442.44
2022-12-12T07:00:53.808Z,101441.50
2022-12-12T07:02:55.277Z,101448.47
2022-12-12T07:04:57.368Z,101446.78
2022-12-12T07:06:58.843Z,101441.72
2022-12-12T07:09:00.525Z,101451.19
2022-12-12T07:11:07.129Z,101444.44
2022-12-12T07:13:08.597Z,101445.22
2022-12-12T07:15:10.706Z,101442.59
2022-12-12T07:17:12.343Z,101445.09
2022-12-12T07:19:13.792Z,101452.88
2022-12-12T07:21:18.208Z,101447.66
2022-12-12T07:23:20.082Z,101448.53
2022-12-12T07:25:21.545Z,101445.97
2022-12-12T07:27:23.102Z,101446.03
2022-12-12T07:29:24.618Z,101446.13
2022-12-12T07:31:26.722Z,101447.06
2022-12-12T07:33:38.253Z,101451.41
2022-12-12T07:35:44.999Z,101450.53
2022-12-12T07:37:47.348Z,101456.47
2022-12-12T07:39:48.769Z,101456.53
2022-12-12T07:41:50.288Z,101463.53
2022-12-12T07:43:52.560Z,101465.28
2022-12-12T07:45:54.540Z,101469.59
2022-12-12T07:47:56.011Z,101467.91
2022-12-12T07:49:57.580Z,101467.97
2022-12-12T07:51:59.029Z,101468.03
2022-12-12T07:54:00.712Z,101463.91
2022-12-12T07:56:06.451Z,101471.84
2022-12-12T07:58:07.974Z,101467.72
2022-12-12T08:00:13.243Z,101469.56
2022-12-12T08:02:14.735Z,101466.13
2022-12-12T08:04:16.224Z,101469.50
2022-12-12T08:06:19.059Z,101467.88
2022-12-12T08:08:21.033Z,101463.69
2022-12-12T08:10:22.765Z,101465.59
2022-12-12T08:12:24.223Z,101472.75
2022-12-12T08:14:26.313Z,101473.78
2022-12-12T08:16:29.875Z,101468.03
2022-12-12T08:18:32.023Z,101466.53
2022-12-12T08:20:33.548Z,101472.78
2022-12-12T08:22:35.111Z,101469.59
2022-12-12T08:24:36.594Z,101477.53
2022-12-12T08:26:38.107Z,101471.72
2022-12-12T08:28:41.469Z,101472.84
2022-12-12T08:30:42.979Z,101481.72
2022-12-12T08:32:44.458Z,101478.47
2022-12-12T08:34:47.186Z,101481.16
2022-12-12T08:36:49.266Z,101481.31
2022-12-12T08:38:51.732Z,101483.19
2022-12-12T08:40:53.185Z,101486.88
2022-12-12T08:42:54.608Z,101489.72
2022-12-12T08:44:56.049Z,101489.91
2022-12-12T08:46:57.620Z,101486.66
2022-12-12T08:48:59.118Z,101488.59
2022-12-12T08:51:00.813Z,101493.13
2022-12-12T08:53:02.294Z,101485.53
2022-12-12T08:55:04.152Z,101490.88
2022-12-12T08:57:05.623Z,101492.84
2022-12-12T08:59:07.108Z,101477.50
2022-12-12T09:01:16.434Z,101483.72
2022-12-12T09:03:18.511Z,101489.06
2022-12-12T09:05:19.971Z,101490.09
2022-12-12T09:07:21.893Z,101492.03
2022-12-12T09:09:23.398Z,101488.88
2022-12-12T09:11:25.230Z,101498.50
2022-12-12T09:13:26.723Z,101502.13
2022-12-12T09:15:28.181Z,101498.06
2022-12-12T09:17:29.656Z,101501.69
2022-12-12T09:19:31.154Z,101501.88
2022-12-12T09:21:32.643Z,101492.59
2022-12-12T09:23:34.616Z,101496.22
2022-12-12T09:25:38.835Z,101494.72
2022-12-12T09:27:43.926Z,101507.06
2022-12-12T09:29:45.578Z,101497.81
2022-12-12T09:31:47.129Z,101501.47
2022-12-12T09:33:48.992Z,101499.13
2022-12-12T09:35:58.147Z,101502.75
2022-12-12T09:37:59.625Z,101497.72
2022-12-12T09:40:01.379Z,101489.28
2022-12-12T09:42:27.505Z,101486.00
2022-12-12T09:44:31.035Z,101496.44
2022-12-12T09:46:44.142Z,101496.69
2022-12-12T09:48:46.709Z,101502.09
2022-12-12T09:50:49.809Z,101497.16
2022-12-12T09:52:51.712Z,101503.44
2022-12-12T09:54:54.098Z,101498.50
2022-12-12T09:57:04.583Z,101506.44
2022-12-12T09:59:18.762Z,101506.66
2022-12-12T10:01:27.164Z,101508.56
2022-12-12T10:03:55.699Z,101506.16
2022-12-12T10:06:20.616Z,101509.78
2022-12-12T10:08:25.564Z,101508.25
2022-12-12T10:10:33.271Z,101504.06
2022-12-12T10:12:34.893Z,101502.53
2022-12-12T10:14:59.235Z,101506.16
2022-12-12T10:17:03.161Z,101501.97
2022-12-12T10:19:14.446Z,101501.31
2022-12-12T10:21:20.904Z,101497.13
2022-12-12T10:23:32.578Z,101498.19
2022-12-12T10:25:52.322Z,101501.88
2022-12-12T10:28:12.941Z,101503.84
2022-12-12T10:30:17.955Z,101503.13
2022-12-12T10:32:54.807Z,101502.50
2022-12-12T10:35:24.539Z,101501.06
2022-12-12T10:37:57.326Z,101496.97
2022-12-12T10:40:01.744Z,101500.72
2022-12-12T10:42:07.964Z,101502.69
2022-12-12T10:44:27.674Z,101498.69
2022-12-12T10:46:41.481Z,101498.13
2022-12-12T10:48:44.317Z,101486.25
2022-12-12T10:50:56.195Z,101486.63
2022-12-12T10:52:57.637Z,101488.66
2022-12-12T10:55:00.539Z,101490.09
2022-12-12T10:57:06.671Z,101491.94
2022-12-12T10:59:21.779Z,101479.22
2022-12-12T11:02:07.854Z,101482.56
2022-12-12T11:03:54.911Z,101483.78
2022-12-12T11:05:57.580Z,101477.03
2022-12-12T11:08:17.985Z,101475.25
2022-12-12T11:10:26.867Z,101476.53
2022-12-12T11:12:34.818Z,101480.28
2022-12-12T11:14:39.642Z,101481.22
2022-12-12T11:16:43.753Z,101479.44
2022-12-12T11:19:10.995Z,101481.91
2022-12-12T11:21:13.966Z,101480.00
2022-12-12T11:23:25.425Z,101476.31
2022-12-12T11:25:32.324Z,101470.00
2022-12-12T11:27:41.340Z,101476.19
2022-12-12T11:29:46.707Z,101479.84
2022-12-12T11:31:48.241Z,101477.41
2022-12-12T11:33:57.036Z,101471.50
2022-12-12T11:36:01.805Z,101469.88
2022-12-12T11:38:16.440Z,101465.31
2022-12-12T11:40:30.175Z,101461.47
2022-12-12T11:42:34.082Z,101460.25
2022-12-12T11:44:37.649Z,101458.16
2022-12-12T11:46:39.136Z,101458.59
2022-12-12T11:48:44.646Z,101457.13
2022-12-12T11:50:46.441Z,101455.72
2022-12-12T11:52:49.347Z,101463.91
2022-12-12T11:54:52.699Z,101455.53
2022-12-12T11:57:02.124Z,101457.03
2022-12-12T11:59:24.681Z,101459.50
2022-12-12T12:01:45.234Z,101455.13
2022-12-12T12:04:15.978Z,101458.66
2022-12-12T12:06:51.397Z,101454.63
2022-12-12T12:08:59.040Z,101452.19
2022-12-12T12:11:12.386Z,101452.03
2022-12-12T12:13:38.100Z,101447.31
2022-12-12T12:15:48.826Z,101456.56
2022-12-12T12:18:08.973Z,101452.03
2022-12-12T12:20:29.909Z,101453.44
2022-12-12T12:22:48.410Z,101446.31
2022-12-12T12:25:13.409Z,101447.81
2022-12-12T12:27:27.617Z,101451.94
2022-12-12T12:29:49.881Z,101445.63
2022-12-12T12:32:03.227Z,101443.75
2022-12-12T12:34:18.286Z,101439.34
2022-12-12T12:36:29.421Z,101441.03
2022-12-12T12:38:55.583Z,101441.81
2022-12-12T12:41:37.740Z,101442.63
2022-12-12T12:44:04.150Z,101439.94
2022-12-12T12:46:10.815Z,101437.31
2022-12-12T12:48:18.071Z,101440.69
2022-12-12T12:50:38.330Z,101439.84
2022-12-12T12:52:46.527Z,101439.84
2022-12-12T12:54:48.969Z,101438.84
2022-12-12T12:57:02.757Z,101431.78
2022-12-12T12:59:18.262Z,101437.75
2022-12-12T13:01:37.221Z,101435.13
2022-12-12T13:03:47.198Z,101436.06
2022-12-12T13:05:55.439Z,101428.25
2022-12-12T13:08:50.921Z,101429.91
2022-12-12T13:11:02.776Z,101431.72
2022-12-12T13:13:14.951Z,101435.22
2022-12-12T13:15:36.904Z,101430.81
2022-12-12T13:18:01.261Z,101428.88
2022-12-12T13:20:03.878Z,101432.25
2022-12-12T13:22:13.868Z,101429.66
2022-12-12T13:24:25.481Z,101432.25
2022-12-12T13:26:39.171Z,101431.41
2022-12-12T13:28:57.498Z,101426.25
2022-12-12T13:31:31.724Z,101431.44
2022-12-12T13:33:48.334Z,101438.31
2022-12-12T13:35:54.615Z,101432.25
2022-12-12T13:37:56.489Z,101431.41
2022-12-12T13:40:04.834Z,101427.97
2022-12-12T13:42:11.142Z,101431.41
2022-12-12T13:44:33.369Z,101433.09
2022-12-12T13:46:37.599Z,101438.22
2022-12-12T13:48:47.081Z,101437.34
2022-12-12T13:51:27.399Z,101434.75
2022-12-12T13:53:28.900Z,101433.81
2022-12-12T13:55:30.357Z,101437.22
2022-12-12T13:57:32.352Z,101434.59
2022-12-12T13:59:53.722Z,101436.28
2022-12-12T14:02:03.196Z,101444.88
2022-12-12T14:04:05.153Z,101448.94
2022-12-12T14:06:12.229Z,101449.69
2022-12-12T14:08:13.727Z,101451.34
2022-12-12T14:10:23.261Z,101451.34
2022-12-12T14:12:33.325Z,101447.88
2022-12-12T14:14:36.832Z,101453.91
2022-12-12T14:16:38.698Z,101449.50
2022-12-12T14:18:56.556Z,101445.97
2022-12-12T14:21:06.648Z,101450.19
2022-12-12T14:23:20.211Z,101444.94
2022-12-12T14:25:33.739Z,101452.69
2022-12-12T14:27:50.106Z,101457.75
2022-12-12T14:29:51.553Z,101453.31
2022-12-12T14:31:56.199Z,101459.31
2022-12-12T14:34:04.655Z,101461.84
2022-12-12T14:36:28.349Z,101466.00
2022-12-12T14:38:35.568Z,101451.09
2022-12-12T14:40:43.305Z,101457.09
2022-12-12T14:43:18.859Z,101457.00
2022-12-12T14:45:27.569Z,101461.16
2022-12-12T14:47:28.992Z,101466.25
2022-12-12T14:49:30.439Z,101466.13
2022-12-12T14:51:35.928Z,101463.47
2022-12-12T14:53:37.329Z,101464.16
2022-12-12T14:55:50.961Z,101463.09
2022-12-12T14:57:52.550Z,101469.03
2022-12-12T14:59:54.327Z,101468.94
2022-12-12T15:02:00.674Z,101471.41
2022-12-12T15:04:05.648Z,101471.31
2022-12-12T15:06:38.262Z,101468.69
2022-12-12T15:08:41.856Z,101465.97
2022-12-12T15:10:43.309Z,101466.69
2022-12-12T15:12:45.001Z,101463.94
2022-12-12T15:14:46.422Z,101468.09
2022-12-12T15:17:13.663Z,101467.94
2022-12-12T15:19:19.428Z,101465.06
2022-12-12T15:21:20.973Z,101474.38
2022-12-12T15:23:23.304Z,101465.59
2022-12-12T15:25:30.792Z,101476.81
2022-12-12T15:27:47.050Z,101477.63
2022-12-12T15:29:50.904Z,101473.97
2022-12-12T15:32:02.884Z,101477.31
2022-12-12T15:34:04.456Z,101481.59
2022-12-12T15:36:17.362Z,101477.97
2022-12-12T15:38:19.138Z,101476.13
2022-12-12T15:40:32.743Z,101476.81
2022-12-12T15:42:34.462Z,101478.38
2022-12-12T15:44:36.544Z,101479.16
2022-12-12T15:46:38.101Z,101473.94
2022-12-12T15:48:44.020Z,101475.59
2022-12-12T15:50:45.910Z,101471.06
2022-12-12T15:53:02.515Z,101482.16
2022-12-12T15:55:05.182Z,101483.75
2022-12-12T15:57:06.711Z,101494.69
2022-12-12T15:59:08.122Z,101487.66
2022-12-12T16:01:20.334Z,101485.88
2022-12-12T16:03:23.611Z,101484.00
2022-12-12T16:05:30.331Z,101490.81
2022-12-12T16:07:36.560Z,101489.78
2022-12-12T16:09:38.062Z,101486.22
2022-12-12T16:11:55.389Z,101489.53
2022-12-12T16:13:57.147Z,101480.84
2022-12-12T16:16:02.323Z,101489.44
2022-12-12T16:18:07.798Z,101483.28
2022-12-12T16:20:14.479Z,101477.16
2022-12-12T16:22:39.518Z,101482.19
2022-12-12T16:24:46.451Z,101483.72
2022-12-12T16:26:48.136Z,101485.97
2022-12-12T16:28:49.573Z,101486.69
2022-12-12T16:30:57.657Z,101493.28
2022-12-12T16:33:30.544Z,101488.94
2022-12-12T16:35:32.003Z,101488.13
2022-12-12T16:37:33.658Z,101488.13
2022-12-12T16:39:36.058Z,101491.53
2022-12-12T16:41:37.690Z,101494.88
2022-12-12T16:43:39.781Z,101492.19
2022-12-12T16:45:42.258Z,101487.84
2022-12-12T16:47:43.725Z,101492.19
2022-12-12T16:49:45.629Z,101491.25
2022-12-12T16:51:47.160Z,101495.50
2022-12-12T16:53:48.911Z,101494.50
2022-12-12T16:55:51.764Z,101500.44
2022-12-12T16:57:53.194Z,101501.16
2022-12-12T16:59:54.645Z,101500.22
2022-12-12T17:01:56.106Z,101494.94
2022-12-12T17:03:57.657Z,101500.00
2022-12-12T17:06:00.076Z,101496.25
2022-12-12T17:08:02.350Z,101493.63
2022-12-12T17:10:04.729Z,101500.50
2022-12-12T17:12:08.798Z,101489.28
2022-12-12T17:14:24.652Z,101486.66
2022-12-12T17:16:28.156Z,101490.88
2022-12-12T17:18:29.726Z,101490.69
2022-12-12T17:20:37.455Z,101486.19
2022-12-12T17:22:40.680Z,101489.59
2022-12-12T17:24:42.197Z,101484.38
2022-12-12T17:26:43.724Z,101485.19
2022-12-12T17:28:45.161Z,101481.69
2022-12-12T17:30:49.948Z,101490.19
2022-12-12T17:35:11.003Z,101489.91
2022-12-12T17:37:12.518Z,101480.34
2022-12-12T17:39:14.026Z,101487.09
2022-12-12T17:41:15.596Z,101484.41
2022-12-12T17:43:17.077Z,101488.56
2022-12-12T17:45:19.442Z,101491.97
2022-12-12T17:47:20.875Z,101491.03
2022-12-12T17:49:22.325Z,101495.38
2022-12-12T17:51:24.342Z,101496.19
2022-12-12T17:53:26.801Z,101494.31
2022-12-12T17:55:53.472Z,101496.78
2022-12-12T17:57:49.689Z,101494.91
2022-12-12T17:59:51.489Z,101495.66
2022-12-12T18:01:53.802Z,101504.16
2022-12-12T18:03:55.896Z,101510.13
2022-12-12T18:05:59.949Z,101507.56
2022-12-12T18:08:01.590Z,101504.91
2022-12-12T18:10:04.011Z,101504.09
2022-12-12T18:12:05.995Z,101505.78
2022-12-12T18:14:08.230Z,101503.16
2022-12-12T18:16:12.751Z,101503.91
2022-12-12T18:18:14.410Z,101503.84
2022-12-12T18:20:16.285Z,101502.03
2022-12-12T18:22:17.962Z,101507.13
2022-12-12T18:24:21.321Z,101504.50
2022-12-12T18:26:24.123Z,101498.38
2022-12-12T18:28:25.545Z,101512.09
2022-12-12T18:30:27.074Z,101509.47
2022-12-12T18:32:28.821Z,101507.59
2022-12-12T18:34:30.386Z,101503.31
2022-12-12T18:36:32.475Z,101502.38
2022-12-12T18:38:35.324Z,101506.53
2022-12-12T18:40:39.259Z,101511.63
2022-12-12T18:42:40.709Z,101501.25
2022-12-12T18:44:42.146Z,101502.00
2022-12-12T18:46:44.069Z,101494.28
2022-12-12T18:48:47.236Z,101488.19
2022-12-12T18:50:48.750Z,101486.34
2022-12-12T18:52:50.177Z,101493.16
2022-12-12T18:54:52.186Z,101483.66
2022-12-12T18:56:53.638Z,101488.75
2022-12-12T18:58:57.275Z,101484.34
2022-12-12T19:01:07.092Z,101480.75
2022-12-12T19:03:09.094Z,101478.06
2022-12-12T19:05:13.326Z,101478.81
2022-12-12T19:07:15.164Z,101478.69
2022-12-12T19:09:18.480Z,101476.88
2022-12-12T19:11:21.214Z,101481.94
2022-12-12T19:13:22.709Z,101475.91
2022-12-12T19:15:24.168Z,101474.97
2022-12-12T19:17:26.899Z,101480.84
2022-12-12T19:19:28.405Z,101480.78
2022-12-12T19:21:29.980Z,101489.28
2022-12-12T19:23:31.815Z,101488.44
2022-12-12T19:25:39.194Z,101487.50
2022-12-12T19:27:44.697Z,101484.88
2022-12-12T19:29:46.162Z,101495.09
2022-12-12T19:31:48.150Z,101500.19
2022-12-12T19:33:49.610Z,101502.72
2022-12-12T19:35:51.112Z,101493.16
2022-12-12T19:37:52.624Z,101498.19
2022-12-12T19:39:54.348Z,101500.69
2022-12-12T19:41:55.807Z,101496.28
2022-12-12T19:44:01.505Z,101492.75
2022-12-12T19:46:09.632Z,101502.19
2022-12-12T19:48:11.533Z,101499.47
2022-12-12T19:50:13.501Z,101495.88
2022-12-12T19:52:15.230Z,101497.59
2022-12-12T19:54:19.576Z,101504.50
2022-12-12T19:56:23.788Z,101493.19
2022-12-12T19:58:25.286Z,101484.56
2022-12-12T20:00:26.802Z,101491.34
2022-12-12T20:02:28.252Z,101489.59
2022-12-12T20:04:30.206Z,101482.56
2022-12-12T20:06:40.853Z,101485.94
2022-12-12T20:08:43.074Z,101488.22
2022-12-12T20:10:44.553Z,101494.19
2022-12-12T20:12:56.095Z,101483.81
2022-12-12T20:14:59.816Z,101494.03
2022-12-12T20:17:03.174Z,101493.09
2022-12-12T20:19:04.863Z,101497.28
2022-12-12T20:21:06.781Z,101496.47
2022-12-12T20:23:08.299Z,101487.88
2022-12-12T20:25:10.041Z,101499.06
2022-12-12T20:27:11.521Z,101491.25
2022-12-12T20:29:14.769Z,101492.91
2022-12-12T20:31:19.020Z,101496.22
2022-12-12T20:33:20.529Z,101489.22
2022-12-12T20:35:22.000Z,101492.63
2022-12-12T20:37:23.662Z,101488.34
2022-12-12T20:39:25.919Z,101490.78
2022-12-12T20:41:30.759Z,101487.28
2022-12-12T20:43:32.223Z,101494.91
2022-12-12T20:45:37.578Z,101490.59
2022-12-12T20:47:39.023Z,101494.84
2022-12-12T20:49:40.483Z,101493.09
2022-12-12T20:51:58.570Z,101502.56
2022-12-12T20:54:03.243Z,101496.56
2022-12-12T20:56:10.786Z,101492.28
2022-12-12T20:58:12.888Z,101488.81
2022-12-12T21:00:15.466Z,101497.44
2022-12-12T21:02:17.080Z,101491.47
2022-12-12T21:04:18.758Z,101493.22
2022-12-12T21:06:23.102Z,101488.09
2022-12-12T21:08:24.742Z,101488.91
2022-12-12T21:10:26.276Z,101485.44
2022-12-12T21:12:27.727Z,101481.09
2022-12-12T21:14:30.815Z,101487.06
2022-12-12T21:16:35.429Z,101482.78
2022-12-12T21:18:37.331Z,101480.09
2022-12-12T21:20:44.125Z,101480.91
2022-12-12T21:22:45.578Z,101479.13
2022-12-12T21:24:47.089Z,101481.72
2022-12-12T21:26:48.901Z,101474.88
2022-12-12T21:28:50.799Z,101471.34
2022-12-12T21:30:52.303Z,101472.22
2022-12-12T21:32:53.772Z,101475.47
2022-12-12T21:34:55.226Z,101476.94
2022-12-12T21:36:56.913Z,101470.03
2022-12-12T21:38:59.578Z,101470.84
2022-12-12T21:41:05.288Z,101476.03
2022-12-12T21:43:06.748Z,101476.03
2022-12-12T21:45:09.199Z,101473.41
2022-12-12T21:47:10.649Z,101476.84
2022-12-12T21:49:28.245Z,101474.22
2022-12-12T21:51:29.844Z,101468.94
2022-12-12T21:53:34.995Z,101467.25
2022-12-12T21:55:37.915Z,101465.47
2022-12-12T21:57:39.353Z,101465.41
2022-12-12T21:59:41.933Z,101471.22
2022-12-12T22:01:43.640Z,101473.00
2022-12-12T22:03:46.995Z,101469.53
2022-12-12T22:05:48.465Z,101479.81
2022-12-12T22:07:49.951Z,101483.28
2022-12-12T22:09:57.853Z,101484.91
2022-12-12T22:12:11.712Z,101490.88
2022-12-12T22:14:21.583Z,101493.38
2022-12-12T22:16:23.472Z,101487.34
2022-12-12T22:18:24.987Z,101496.81
2022-12-12T22:20:26.475Z,101498.56
2022-12-12T22:22:29.009Z,101499.38
2022-12-12T22:24:30.458Z,101505.50
2022-12-12T22:26:38.333Z,101507.25
2022-12-12T22:28:39.875Z,101507.25
2022-12-12T22:30:42.134Z,101511.66
2022-12-12T22:32:43.576Z,101512.53
2022-12-12T22:34:45.016Z,101506.59
2022-12-12T22:36:47.064Z,101509.16
2022-12-12T22:38:48.499Z,101506.59
2022-12-12T22:40:56.442Z,101510.09
2022-12-12T22:42:58.918Z,101504.16
2022-12-12T22:45:00.635Z,101501.56
2022-12-12T22:47:02.191Z,101502.47
2022-12-12T22:49:03.667Z,101508.41
2022-12-12T22:51:32.765Z,101502.25
2022-12-12T22:53:36.177Z,101502.19
2022-12-12T22:55:40.996Z,101496.16
2022-12-12T22:57:45.082Z,101492.69
2022-12-12T22:59:47.562Z,101485.72
2022-12-12T23:01:49.064Z,101488.28
2022-12-12T23:03:52.054Z,101479.53
2022-12-12T23:05:53.533Z,101480.28
2022-12-12T23:07:55.085Z,101488.00
2022-12-12T23:09:58.907Z,101490.38
2022-12-12T23:12:00.371Z,101488.38
2022-12-12T23:14:04.891Z,101498.69
2022-12-12T23:16:08.513Z,101495.97
2022-12-12T23:18:09.981Z,101489.06
2022-12-12T23:20:11.501Z,101495.09
2022-12-12T23:22:12.997Z,101486.50
2022-12-12T23:24:15.178Z,101482.16
2022-12-12T23:26:22.473Z,101482.09
2022-12-12T23:28:23.967Z,101477.69
2022-12-12T23:30:25.405Z,101484.41
2022-12-12T23:32:26.836Z,101477.50
2022-12-12T23:34:28.912Z,101489.53
2022-12-12T23:36:31.191Z,101484.25
2022-12-12T23:38:32.728Z,101485.94
2022-12-12T23:40:34.175Z,101485.13
2022-12-12T23:42:35.606Z,101486.03
2022-12-12T23:44:37.049Z,101495.50
2022-12-12T23:46:38.668Z,101482.66
2022-12-12T23:48:40.101Z,101492.13
2022-12-12T23:50:41.539Z,101487.84
2022-12-12T23:52:43.019Z,101489.53
2022-12-12T23:54:44.468Z,101483.44
2022-12-12T23:56:47.560Z,101478.31
2022-12-12T23:58:49.012Z,101479.13
